sensor_id;sensor_type;location;lat;lon;timestamp;P1;durP1;ratioP1;P2;durP2;ratioP2
9938;SDS011;5008;50.656;7.188;2023-05-29T04:02:03;4.97;;;3.87;;
9938;SDS011;5008;50.656;7.188;2023-05-29T04:04:30;6.47;;;3.90;;
9938;SDS011;5008;50.656;7.188;2023-05-29T04:06:56;5.20;;;3.40;;
9938;SDS011;5008;50.656;7.188;2023-05-29T04:09:36;7.30;;;4.27;;
9938;SDS011;5008;50.656;7.188;2023-05-29T04:12:06;4.23;;;3.53;;
9938;SDS011;5008;50.656;7.188;2023-05-29T04:14:34;5.70;;;4.10;;
9938;SDS011;5008;50.656;7.188;2023-05-29T04:17:04;5.40;;;4.00;;
9938;SDS011;5008;50.656;7.188;2023-05-29T04:19:31;8.90;;;4.30;;
9938;SDS011;5008;50.656;7.188;2023-05-29T04:21:57;7.70;;;3.90;;
9938;SDS011;5008;50.656;7.188;2023-05-29T04:24:24;4.37;;;3.60;;
9938;SDS011;5008;50.656;7.188;2023-05-29T04:26:51;4.03;;;3.57;;
9938;SDS011;5008;50.656;7.188;2023-05-29T04:29:18;4.43;;;3.78;;
9938;SDS011;5008;50.656;7.188;2023-05-29T04:31:45;4.82;;;3.55;;
9938;SDS011;5008;50.656;7.188;2023-05-29T04:34:13;4.10;;;3.70;;
9938;SDS011;5008;50.656;7.188;2023-05-29T04:36:41;5.00;;;3.90;;
9938;SDS011;5008;50.656;7.188;2023-05-29T04:39:09;4.40;;;3.60;;
9938;SDS011;5008;50.656;7.188;2023-05-29T04:41:36;4.03;;;3.60;;
9938;SDS011;5008;50.656;7.188;2023-05-29T04:44:11;3.63;;;3.20;;
9938;SDS011;5008;50.656;7.188;2023-05-29T04:46:38;6.05;;;3.50;;
9938;SDS011;5008;50.656;7.188;2023-05-29T04:49:05;3.60;;;3.28;;
9938;SDS011;5008;50.656;7.188;2023-05-29T04:51:33;5.30;;;3.50;;
9938;SDS011;5008;50.656;7.188;2023-05-29T04:54:01;6.10;;;4.00;;
9938;SDS011;5008;50.656;7.188;2023-05-29T04:56:28;4.97;;;3.63;;
9938;SDS011;5008;50.656;7.188;2023-05-29T04:58:55;4.07;;;3.67;;
9938;SDS011;5008;50.656;7.188;2023-05-29T05:01:23;4.90;;;3.83;;
9938;SDS011;5008;50.656;7.188;2023-05-29T05:03:50;6.72;;;3.92;;
9938;SDS011;5008;50.656;7.188;2023-05-29T05:06:20;5.00;;;3.87;;
9938;SDS011;5008;50.656;7.188;2023-05-29T05:08:48;4.80;;;4.07;;
9938;SDS011;5008;50.656;7.188;2023-05-29T05:11:15;8.23;;;4.10;;
9938;SDS011;5008;50.656;7.188;2023-05-29T05:13:45;6.77;;;4.33;;
9938;SDS011;5008;50.656;7.188;2023-05-29T05:16:12;6.82;;;4.70;;
9938;SDS011;5008;50.656;7.188;2023-05-29T05:18:39;6.40;;;4.35;;
9938;SDS011;5008;50.656;7.188;2023-05-29T05:21:05;4.17;;;3.70;;
9938;SDS011;5008;50.656;7.188;2023-05-29T05:23:32;6.67;;;4.20;;
9938;SDS011;5008;50.656;7.188;2023-05-29T05:26:01;9.82;;;4.28;;
9938;SDS011;5008;50.656;7.188;2023-05-29T05:28:27;4.80;;;4.00;;
9938;SDS011;5008;50.656;7.188;2023-05-29T05:30:54;7.87;;;4.10;;
9938;SDS011;5008;50.656;7.188;2023-05-29T05:33:21;4.53;;;3.72;;
9938;SDS011;5008;50.656;7.188;2023-05-29T05:35:48;5.80;;;4.20;;
9938;SDS011;5008;50.656;7.188;2023-05-29T05:38:15;5.60;;;4.30;;
9938;SDS011;5008;50.656;7.188;2023-05-29T05:40:41;4.93;;;4.00;;
9938;SDS011;5008;50.656;7.188;2023-05-29T05:43:11;5.27;;;4.43;;
9938;SDS011;5008;50.656;7.188;2023-05-29T05:45:37;4.97;;;3.97;;
9938;SDS011;5008;50.656;7.188;2023-05-29T05:48:07;5.93;;;4.43;;
9938;SDS011;5008;50.656;7.188;2023-05-29T05:50:33;7.07;;;4.93;;
9938;SDS011;5008;50.656;7.188;2023-05-29T05:53:01;5.32;;;4.40;;
9938;SDS011;5008;50.656;7.188;2023-05-29T05:55:27;5.20;;;4.63;;
9938;SDS011;5008;50.656;7.188;2023-05-29T05:57:54;6.40;;;4.90;;
9938;SDS011;5008;50.656;7.188;2023-05-29T06:00:23;6.10;;;4.73;;
9938;SDS011;5008;50.656;7.188;2023-05-29T06:02:50;4.57;;;3.90;;
9938;SDS011;5008;50.656;7.188;2023-05-29T06:05:17;5.63;;;4.18;;
9938;SDS011;5008;50.656;7.188;2023-05-29T06:07:44;4.95;;;4.45;;
9938;SDS011;5008;50.656;7.188;2023-05-29T06:10:11;7.00;;;4.80;;
9938;SDS011;5008;50.656;7.188;2023-05-29T06:12:38;6.15;;;5.00;;
9938;SDS011;5008;50.656;7.188;2023-05-29T06:15:05;6.28;;;4.07;;
9938;SDS011;5008;50.656;7.188;2023-05-29T06:17:34;5.82;;;4.38;;
9938;SDS011;5008;50.656;7.188;2023-05-29T06:20:01;5.97;;;4.75;;
9938;SDS011;5008;50.656;7.188;2023-05-29T06:22:29;7.60;;;4.60;;
9938;SDS011;5008;50.656;7.188;2023-05-29T06:24:55;6.05;;;4.90;;
9938;SDS011;5008;50.656;7.188;2023-05-29T06:27:22;6.28;;;4.68;;
9938;SDS011;5008;50.656;7.188;2023-05-29T06:29:50;5.53;;;4.35;;
9938;SDS011;5008;50.656;7.188;2023-05-29T06:32:18;6.03;;;4.68;;
9938;SDS011;5008;50.656;7.188;2023-05-29T06:34:46;6.63;;;4.68;;
9938;SDS011;5008;50.656;7.188;2023-05-29T06:37:13;8.55;;;4.55;;
9938;SDS011;5008;50.656;7.188;2023-05-29T06:39:40;5.60;;;5.00;;
9938;SDS011;5008;50.656;7.188;2023-05-29T06:42:10;6.43;;;4.78;;
9938;SDS011;5008;50.656;7.188;2023-05-29T06:44:36;6.88;;;5.05;;
9938;SDS011;5008;50.656;7.188;2023-05-29T06:47:05;6.13;;;4.60;;
9938;SDS011;5008;50.656;7.188;2023-05-29T06:49:32;5.78;;;4.55;;
9938;SDS011;5008;50.656;7.188;2023-05-29T06:52:00;7.93;;;4.72;;
9938;SDS011;5008;50.656;7.188;2023-05-29T06:54:26;6.40;;;4.68;;
9938;SDS011;5008;50.656;7.188;2023-05-29T06:56:53;8.77;;;4.97;;
9938;SDS011;5008;50.656;7.188;2023-05-29T06:59:21;7.82;;;4.95;;
9938;SDS011;5008;50.656;7.188;2023-05-29T07:01:48;7.10;;;4.95;;
9938;SDS011;5008;50.656;7.188;2023-05-29T07:04:15;5.32;;;4.47;;
9938;SDS011;5008;50.656;7.188;2023-05-29T07:06:42;7.72;;;5.07;;
9938;SDS011;5008;50.656;7.188;2023-05-29T07:09:10;10.05;;;4.85;;
9938;SDS011;5008;50.656;7.188;2023-05-29T07:11:37;9.60;;;4.85;;
9938;SDS011;5008;50.656;7.188;2023-05-29T07:14:04;8.73;;;4.65;;
9938;SDS011;5008;50.656;7.188;2023-05-29T07:16:32;6.40;;;4.65;;
9938;SDS011;5008;50.656;7.188;2023-05-29T07:18:58;6.45;;;4.25;;
9938;SDS011;5008;50.656;7.188;2023-05-29T07:21:25;8.07;;;5.20;;
9938;SDS011;5008;50.656;7.188;2023-05-29T07:23:52;6.70;;;4.75;;
9938;SDS011;5008;50.656;7.188;2023-05-29T07:26:20;7.22;;;4.88;;
9938;SDS011;5008;50.656;7.188;2023-05-29T07:28:48;8.10;;;4.43;;
9938;SDS011;5008;50.656;7.188;2023-05-29T07:31:14;8.43;;;4.93;;
9938;SDS011;5008;50.656;7.188;2023-05-29T07:33:41;7.47;;;4.65;;
9938;SDS011;5008;50.656;7.188;2023-05-29T07:36:09;6.25;;;4.63;;
9938;SDS011;5008;50.656;7.188;2023-05-29T07:38:36;6.47;;;4.80;;
9938;SDS011;5008;50.656;7.188;2023-05-29T07:41:03;6.60;;;5.00;;
9938;SDS011;5008;50.656;7.188;2023-05-29T07:43:31;7.95;;;4.65;;
9938;SDS011;5008;50.656;7.188;2023-05-29T07:45:58;6.57;;;4.45;;
9938;SDS011;5008;50.656;7.188;2023-05-29T07:48:25;6.60;;;4.65;;
9938;SDS011;5008;50.656;7.188;2023-05-29T07:50:52;10.57;;;5.05;;
9938;SDS011;5008;50.656;7.188;2023-05-29T07:53:19;7.15;;;4.30;;
9938;SDS011;5008;50.656;7.188;2023-05-29T07:55:46;7.13;;;5.03;;
9938;SDS011;5008;50.656;7.188;2023-05-29T07:58:12;8.25;;;4.70;;
9938;SDS011;5008;50.656;7.188;2023-05-29T08:00:43;7.60;;;4.60;;
9938;SDS011;5008;50.656;7.188;2023-05-29T08:03:10;6.57;;;4.60;;
9938;SDS011;5008;50.656;7.188;2023-05-29T08:05:37;8.35;;;5.25;;
9938;SDS011;5008;50.656;7.188;2023-05-29T08:08:04;8.18;;;4.78;;
9938;SDS011;5008;50.656;7.188;2023-05-29T08:10:31;6.60;;;5.20;;
9938;SDS011;5008;50.656;7.188;2023-05-29T08:12:58;7.15;;;4.85;;
9938;SDS011;5008;50.656;7.188;2023-05-29T08:15:25;6.18;;;4.85;;
9938;SDS011;5008;50.656;7.188;2023-05-29T08:17:53;7.75;;;4.80;;
9938;SDS011;5008;50.656;7.188;2023-05-29T08:20:20;6.80;;;4.82;;
9938;SDS011;5008;50.656;7.188;2023-05-29T08:22:47;5.85;;;4.68;;
9938;SDS011;5008;50.656;7.188;2023-05-29T08:25:14;8.63;;;5.20;;
9938;SDS011;5008;50.656;7.188;2023-05-29T08:27:40;6.97;;;4.75;;
9938;SDS011;5008;50.656;7.188;2023-05-29T08:30:07;5.80;;;4.38;;
9938;SDS011;5008;50.656;7.188;2023-05-29T08:32:35;6.78;;;4.63;;
9938;SDS011;5008;50.656;7.188;2023-05-29T08:35:04;7.25;;;4.43;;
9938;SDS011;5008;50.656;7.188;2023-05-29T08:37:31;6.18;;;5.15;;
9938;SDS011;5008;50.656;7.188;2023-05-29T08:39:57;7.82;;;4.97;;
9938;SDS011;5008;50.656;7.188;2023-05-29T08:42:26;6.47;;;4.57;;
9938;SDS011;5008;50.656;7.188;2023-05-29T08:44:58;7.00;;;4.85;;
9938;SDS011;5008;50.656;7.188;2023-05-29T08:47:28;8.10;;;5.03;;
9938;SDS011;5008;50.656;7.188;2023-05-29T08:49:59;5.95;;;4.43;;
9938;SDS011;5008;50.656;7.188;2023-05-29T08:52:29;7.30;;;4.80;;
9938;SDS011;5008;50.656;7.188;2023-05-29T08:55:01;7.72;;;4.70;;
9938;SDS011;5008;50.656;7.188;2023-05-29T08:57:28;7.10;;;4.88;;
9938;SDS011;5008;50.656;7.188;2023-05-29T08:59:56;6.32;;;4.50;;
9938;SDS011;5008;50.656;7.188;2023-05-29T09:02:23;7.53;;;4.60;;
9938;SDS011;5008;50.656;7.188;2023-05-29T09:04:50;7.60;;;5.05;;
9938;SDS011;5008;50.656;7.188;2023-05-29T09:07:19;6.43;;;5.10;;
9938;SDS011;5008;50.656;7.188;2023-05-29T09:09:48;6.20;;;4.90;;
9938;SDS011;5008;50.656;7.188;2023-05-29T09:12:15;6.88;;;5.07;;
9938;SDS011;5008;50.656;7.188;2023-05-29T09:14:43;9.35;;;5.18;;
9938;SDS011;5008;50.656;7.188;2023-05-29T09:17:11;7.40;;;4.35;;
9938;SDS011;5008;50.656;7.188;2023-05-29T09:19:40;6.88;;;4.50;;
9938;SDS011;5008;50.656;7.188;2023-05-29T09:22:08;7.18;;;4.57;;
9938;SDS011;5008;50.656;7.188;2023-05-29T09:24:39;8.05;;;4.93;;
9938;SDS011;5008;50.656;7.188;2023-05-29T09:27:07;9.05;;;4.82;;
9938;SDS011;5008;50.656;7.188;2023-05-29T09:29:37;7.82;;;5.35;;
9938;SDS011;5008;50.656;7.188;2023-05-29T09:32:06;6.93;;;4.72;;
9938;SDS011;5008;50.656;7.188;2023-05-29T09:34:34;8.60;;;5.00;;
9938;SDS011;5008;50.656;7.188;2023-05-29T09:37:02;9.15;;;4.78;;
9938;SDS011;5008;50.656;7.188;2023-05-29T09:39:33;9.30;;;4.95;;
9938;SDS011;5008;50.656;7.188;2023-05-29T09:42:00;9.10;;;4.38;;
9938;SDS011;5008;50.656;7.188;2023-05-29T09:44:29;5.78;;;4.05;;
9938;SDS011;5008;50.656;7.188;2023-05-29T09:46:57;7.15;;;3.90;;
9938;SDS011;5008;50.656;7.188;2023-05-29T09:49:25;8.75;;;4.50;;
9938;SDS011;5008;50.656;7.188;2023-05-29T09:51:53;5.28;;;4.43;;
9938;SDS011;5008;50.656;7.188;2023-05-29T09:54:20;7.78;;;4.13;;
9938;SDS011;5008;50.656;7.188;2023-05-29T09:56:47;6.28;;;4.30;;
9938;SDS011;5008;50.656;7.188;2023-05-29T09:59:16;7.18;;;4.28;;
9938;SDS011;5008;50.656;7.188;2023-05-29T10:01:44;8.15;;;3.92;;
9938;SDS011;5008;50.656;7.188;2023-05-29T10:04:11;5.18;;;4.05;;
9938;SDS011;5008;50.656;7.188;2023-05-29T10:06:41;6.80;;;4.00;;
9938;SDS011;5008;50.656;7.188;2023-05-29T10:09:11;5.78;;;3.90;;
9938;SDS011;5008;50.656;7.188;2023-05-29T10:11:41;6.47;;;3.70;;
9938;SDS011;5008;50.656;7.188;2023-05-29T10:14:11;8.38;;;4.40;;
9938;SDS011;5008;50.656;7.188;2023-05-29T10:16:45;6.07;;;3.90;;
9938;SDS011;5008;50.656;7.188;2023-05-29T10:19:14;5.85;;;3.80;;
9938;SDS011;5008;50.656;7.188;2023-05-29T10:21:47;6.25;;;3.97;;
9938;SDS011;5008;50.656;7.188;2023-05-29T10:24:15;6.40;;;3.97;;
9938;SDS011;5008;50.656;7.188;2023-05-29T10:26:43;6.28;;;4.13;;
9938;SDS011;5008;50.656;7.188;2023-05-29T10:29:17;8.63;;;4.45;;
9938;SDS011;5008;50.656;7.188;2023-05-29T10:31:52;7.00;;;4.40;;
9938;SDS011;5008;50.656;7.188;2023-05-29T10:34:33;8.15;;;3.63;;
9938;SDS011;5008;50.656;7.188;2023-05-29T10:37:06;6.00;;;3.88;;
9938;SDS011;5008;50.656;7.188;2023-05-29T10:39:51;4.53;;;3.30;;
9938;SDS011;5008;50.656;7.188;2023-05-29T10:42:40;5.68;;;3.90;;
9938;SDS011;5008;50.656;7.188;2023-05-29T10:45:11;4.47;;;3.45;;
9938;SDS011;5008;50.656;7.188;2023-05-29T10:51:26;8.05;;;4.40;;
9938;SDS011;5008;50.656;7.188;2023-05-29T10:53:53;5.97;;;3.60;;
9938;SDS011;5008;50.656;7.188;2023-05-29T10:56:21;6.43;;;3.33;;
9938;SDS011;5008;50.656;7.188;2023-05-29T10:58:52;7.18;;;3.65;;
9938;SDS011;5008;50.656;7.188;2023-05-29T11:01:21;7.25;;;3.97;;
9938;SDS011;5008;50.656;7.188;2023-05-29T11:03:50;6.22;;;3.17;;
9938;SDS011;5008;50.656;7.188;2023-05-29T11:06:18;7.93;;;3.38;;
9938;SDS011;5008;50.656;7.188;2023-05-29T11:08:52;7.13;;;3.97;;
9938;SDS011;5008;50.656;7.188;2023-05-29T11:11:29;6.25;;;3.47;;
9938;SDS011;5008;50.656;7.188;2023-05-29T11:14:00;3.42;;;3.08;;
9938;SDS011;5008;50.656;7.188;2023-05-29T11:16:37;5.53;;;3.70;;
9938;SDS011;5008;50.656;7.188;2023-05-29T11:19:06;7.57;;;3.67;;
9938;SDS011;5008;50.656;7.188;2023-05-29T11:21:41;7.50;;;3.85;;
9938;SDS011;5008;50.656;7.188;2023-05-29T11:24:20;8.35;;;5.05;;
9938;SDS011;5008;50.656;7.188;2023-05-29T11:26:48;9.20;;;4.22;;
9938;SDS011;5008;50.656;7.188;2023-05-29T11:29:20;6.57;;;3.50;;
9938;SDS011;5008;50.656;7.188;2023-05-29T11:34:55;5.05;;;3.47;;
9938;SDS011;5008;50.656;7.188;2023-05-29T11:37:24;5.82;;;3.35;;
9938;SDS011;5008;50.656;7.188;2023-05-29T11:39:51;7.93;;;3.53;;
9938;SDS011;5008;50.656;7.188;2023-05-29T11:42:18;5.80;;;3.65;;
9938;SDS011;5008;50.656;7.188;2023-05-29T11:44:56;6.05;;;3.30;;
9938;SDS011;5008;50.656;7.188;2023-05-29T11:47:49;6.80;;;3.45;;
9938;SDS011;5008;50.656;7.188;2023-05-29T11:50:19;5.07;;;3.42;;
9938;SDS011;5008;50.656;7.188;2023-05-29T11:52:47;4.82;;;3.67;;
9938;SDS011;5008;50.656;7.188;2023-05-29T11:55:14;6.38;;;3.65;;
9938;SDS011;5008;50.656;7.188;2023-05-29T11:57:41;7.40;;;3.75;;
9938;SDS011;5008;50.656;7.188;2023-05-29T12:00:12;5.60;;;3.90;;
9938;SDS011;5008;50.656;7.188;2023-05-29T12:02:39;7.97;;;3.45;;
9938;SDS011;5008;50.656;7.188;2023-05-29T12:05:07;7.07;;;3.78;;
9938;SDS011;5008;50.656;7.188;2023-05-29T12:07:36;5.57;;;3.15;;
9938;SDS011;5008;50.656;7.188;2023-05-29T12:10:10;5.80;;;3.15;;
9938;SDS011;5008;50.656;7.188;2023-05-29T12:12:37;8.02;;;3.40;;
9938;SDS011;5008;50.656;7.188;2023-05-29T12:15:05;5.80;;;3.15;;
9938;SDS011;5008;50.656;7.188;2023-05-29T12:17:33;7.88;;;3.60;;
9938;SDS011;5008;50.656;7.188;2023-05-29T12:20:01;4.30;;;3.20;;
9938;SDS011;5008;50.656;7.188;2023-05-29T12:22:34;4.18;;;3.47;;
9938;SDS011;5008;50.656;7.188;2023-05-29T12:25:05;4.55;;;3.00;;
9938;SDS011;5008;50.656;7.188;2023-05-29T12:27:33;4.13;;;3.22;;
9938;SDS011;5008;50.656;7.188;2023-05-29T12:30:06;5.90;;;3.45;;
9938;SDS011;5008;50.656;7.188;2023-05-29T12:32:35;4.82;;;3.03;;
9938;SDS011;5008;50.656;7.188;2023-05-29T12:35:13;6.63;;;3.63;;
9938;SDS011;5008;50.656;7.188;2023-05-29T12:37:43;4.85;;;2.42;;
9938;SDS011;5008;50.656;7.188;2023-05-29T12:40:14;6.85;;;3.80;;
9938;SDS011;5008;50.656;7.188;2023-05-29T12:42:42;6.32;;;3.85;;
9938;SDS011;5008;50.656;7.188;2023-05-29T12:45:10;3.78;;;2.83;;
9938;SDS011;5008;50.656;7.188;2023-05-29T12:47:37;5.65;;;3.03;;
9938;SDS011;5008;50.656;7.188;2023-05-29T12:50:18;4.72;;;2.60;;
9938;SDS011;5008;50.656;7.188;2023-05-29T12:52:53;5.97;;;3.17;;
9938;SDS011;5008;50.656;7.188;2023-05-29T12:55:24;7.30;;;3.72;;
9938;SDS011;5008;50.656;7.188;2023-05-29T12:57:51;4.10;;;3.50;;
9938;SDS011;5008;50.656;7.188;2023-05-29T13:00:18;6.13;;;3.80;;
9938;SDS011;5008;50.656;7.188;2023-05-29T13:02:46;8.38;;;4.30;;
9938;SDS011;5008;50.656;7.188;2023-05-29T13:05:13;3.67;;;3.20;;
9938;SDS011;5008;50.656;7.188;2023-05-29T13:07:41;6.95;;;3.50;;
9938;SDS011;5008;50.656;7.188;2023-05-29T13:10:10;5.32;;;2.92;;
9938;SDS011;5008;50.656;7.188;2023-05-29T13:12:37;4.82;;;3.17;;
9938;SDS011;5008;50.656;7.188;2023-05-29T13:15:04;4.65;;;2.88;;
9938;SDS011;5008;50.656;7.188;2023-05-29T13:17:31;4.22;;;3.40;;
9938;SDS011;5008;50.656;7.188;2023-05-29T13:19:59;7.72;;;3.63;;
9938;SDS011;5008;50.656;7.188;2023-05-29T13:22:26;4.43;;;3.22;;
9938;SDS011;5008;50.656;7.188;2023-05-29T13:24:56;3.35;;;3.05;;
9938;SDS011;5008;50.656;7.188;2023-05-29T13:27:25;6.25;;;3.30;;
9938;SDS011;5008;50.656;7.188;2023-05-29T13:29:52;6.22;;;3.63;;
9938;SDS011;5008;50.656;7.188;2023-05-29T13:32:20;5.43;;;3.67;;
9938;SDS011;5008;50.656;7.188;2023-05-29T13:34:46;5.75;;;3.42;;
9938;SDS011;5008;50.656;7.188;2023-05-29T13:37:13;5.75;;;2.92;;
9938;SDS011;5008;50.656;7.188;2023-05-29T13:39:40;5.85;;;3.10;;
9938;SDS011;5008;50.656;7.188;2023-05-29T13:42:07;6.00;;;3.50;;
9938;SDS011;5008;50.656;7.188;2023-05-29T13:44:36;5.22;;;3.58;;
9938;SDS011;5008;50.656;7.188;2023-05-29T13:47:04;5.85;;;3.30;;
9938;SDS011;5008;50.656;7.188;2023-05-29T13:49:32;6.25;;;2.97;;
9938;SDS011;5008;50.656;7.188;2023-05-29T13:51:59;6.38;;;3.63;;
9938;SDS011;5008;50.656;7.188;2023-05-29T13:54:25;7.45;;;5.00;;
9938;SDS011;5008;50.656;7.188;2023-05-29T13:56:54;3.97;;;3.53;;
9938;SDS011;5008;50.656;7.188;2023-05-29T13:59:22;4.10;;;2.92;;
9938;SDS011;5008;50.656;7.188;2023-05-29T14:01:50;5.50;;;3.95;;
9938;SDS011;5008;50.656;7.188;2023-05-29T14:04:17;4.32;;;2.97;;
9938;SDS011;5008;50.656;7.188;2023-05-29T14:06:43;4.57;;;3.40;;
9938;SDS011;5008;50.656;7.188;2023-05-29T14:09:10;5.22;;;2.97;;
9938;SDS011;5008;50.656;7.188;2023-05-29T14:11:39;4.90;;;3.33;;
9938;SDS011;5008;50.656;7.188;2023-05-29T14:14:06;4.18;;;3.45;;
9938;SDS011;5008;50.656;7.188;2023-05-29T14:16:32;5.15;;;3.85;;
9938;SDS011;5008;50.656;7.188;2023-05-29T14:19:01;6.70;;;3.42;;
9938;SDS011;5008;50.656;7.188;2023-05-29T14:21:28;6.70;;;3.13;;
9938;SDS011;5008;50.656;7.188;2023-05-29T14:23:54;5.78;;;3.65;;
9938;SDS011;5008;50.656;7.188;2023-05-29T14:26:21;4.28;;;2.78;;
9938;SDS011;5008;50.656;7.188;2023-05-29T14:28:48;5.22;;;2.85;;
9938;SDS011;5008;50.656;7.188;2023-05-29T14:31:15;4.40;;;3.13;;
9938;SDS011;5008;50.656;7.188;2023-05-29T14:33:43;4.72;;;2.92;;
9938;SDS011;5008;50.656;7.188;2023-05-29T14:36:12;5.28;;;3.08;;
9938;SDS011;5008;50.656;7.188;2023-05-29T14:38:38;4.03;;;2.78;;
9938;SDS011;5008;50.656;7.188;2023-05-29T14:41:06;7.63;;;3.05;;
9938;SDS011;5008;50.656;7.188;2023-05-29T14:43:33;5.35;;;2.88;;
9938;SDS011;5008;50.656;7.188;2023-05-29T14:46:00;4.80;;;3.38;;
9938;SDS011;5008;50.656;7.188;2023-05-29T14:48:26;6.25;;;2.55;;
9938;SDS011;5008;50.656;7.188;2023-05-29T14:50:53;6.47;;;2.63;;
9938;SDS011;5008;50.656;7.188;2023-05-29T14:53:21;4.82;;;3.13;;
9938;SDS011;5008;50.656;7.188;2023-05-29T14:55:48;3.33;;;3.00;;
9938;SDS011;5008;50.656;7.188;2023-05-29T14:58:15;4.68;;;2.55;;
9938;SDS011;5008;50.656;7.188;2023-05-29T15:00:50;4.72;;;2.80;;
9938;SDS011;5008;50.656;7.188;2023-05-29T15:03:16;4.10;;;2.67;;
9938;SDS011;5008;50.656;7.188;2023-05-29T15:05:43;3.55;;;2.80;;
9938;SDS011;5008;50.656;7.188;2023-05-29T15:08:10;4.78;;;2.67;;
9938;SDS011;5008;50.656;7.188;2023-05-29T15:10:38;4.25;;;2.97;;
9938;SDS011;5008;50.656;7.188;2023-05-29T15:13:05;3.92;;;2.97;;
9938;SDS011;5008;50.656;7.188;2023-05-29T15:15:33;3.63;;;2.90;;
9938;SDS011;5008;50.656;7.188;2023-05-29T15:18:00;5.88;;;2.75;;
9938;SDS011;5008;50.656;7.188;2023-05-29T15:20:26;4.50;;;2.90;;
9938;SDS011;5008;50.656;7.188;2023-05-29T15:22:53;4.32;;;3.30;;
9938;SDS011;5008;50.656;7.188;2023-05-29T15:25:21;4.97;;;3.10;;
9938;SDS011;5008;50.656;7.188;2023-05-29T15:27:49;5.28;;;3.25;;
9938;SDS011;5008;50.656;7.188;2023-05-29T15:30:17;4.22;;;2.53;;
9938;SDS011;5008;50.656;7.188;2023-05-29T15:32:45;4.80;;;2.67;;
9938;SDS011;5008;50.656;7.188;2023-05-29T15:35:12;5.32;;;2.88;;
9938;SDS011;5008;50.656;7.188;2023-05-29T15:37:41;4.60;;;2.50;;
9938;SDS011;5008;50.656;7.188;2023-05-29T15:40:09;5.57;;;3.15;;
9938;SDS011;5008;50.656;7.188;2023-05-29T15:42:36;3.42;;;2.53;;
9938;SDS011;5008;50.656;7.188;2023-05-29T15:45:05;4.85;;;2.63;;
9938;SDS011;5008;50.656;7.188;2023-05-29T15:47:32;4.43;;;2.60;;
9938;SDS011;5008;50.656;7.188;2023-05-29T15:49:59;4.30;;;2.45;;
9938;SDS011;5008;50.656;7.188;2023-05-29T15:52:26;5.63;;;3.15;;
9938;SDS011;5008;50.656;7.188;2023-05-29T15:54:53;5.03;;;2.67;;
9938;SDS011;5008;50.656;7.188;2023-05-29T15:57:19;4.10;;;2.75;;
9938;SDS011;5008;50.656;7.188;2023-05-29T15:59:46;2.65;;;2.15;;
9938;SDS011;5008;50.656;7.188;2023-05-29T16:02:14;7.05;;;2.92;;
9938;SDS011;5008;50.656;7.188;2023-05-29T16:04:41;4.07;;;2.75;;
9938;SDS011;5008;50.656;7.188;2023-05-29T16:07:08;4.38;;;2.92;;
9938;SDS011;5008;50.656;7.188;2023-05-29T16:09:35;3.47;;;3.00;;
9938;SDS011;5008;50.656;7.188;2023-05-29T16:12:03;6.57;;;2.80;;
9938;SDS011;5008;50.656;7.188;2023-05-29T16:14:31;3.72;;;2.78;;
9938;SDS011;5008;50.656;7.188;2023-05-29T16:16:58;4.55;;;2.63;;
9938;SDS011;5008;50.656;7.188;2023-05-29T16:19:28;5.10;;;3.15;;
9938;SDS011;5008;50.656;7.188;2023-05-29T16:21:55;5.15;;;3.13;;
9938;SDS011;5008;50.656;7.188;2023-05-29T16:24:21;5.30;;;3.20;;
9938;SDS011;5008;50.656;7.188;2023-05-29T16:26:50;5.35;;;3.67;;
9938;SDS011;5008;50.656;7.188;2023-05-29T16:29:17;5.00;;;3.00;;
9938;SDS011;5008;50.656;7.188;2023-05-29T16:31:45;4.68;;;2.25;;
9938;SDS011;5008;50.656;7.188;2023-05-29T16:34:14;7.30;;;3.20;;
9938;SDS011;5008;50.656;7.188;2023-05-29T16:36:42;5.15;;;3.28;;
9938;SDS011;5008;50.656;7.188;2023-05-29T16:39:09;2.83;;;2.30;;
9938;SDS011;5008;50.656;7.188;2023-05-29T16:41:36;5.55;;;3.10;;
9938;SDS011;5008;50.656;7.188;2023-05-29T16:44:04;5.20;;;3.28;;
9938;SDS011;5008;50.656;7.188;2023-05-29T16:46:31;5.18;;;3.10;;
9938;SDS011;5008;50.656;7.188;2023-05-29T16:48:58;7.28;;;3.50;;
9938;SDS011;5008;50.656;7.188;2023-05-29T16:51:25;5.10;;;2.90;;
9938;SDS011;5008;50.656;7.188;2023-05-29T16:53:53;4.45;;;2.72;;
9938;SDS011;5008;50.656;7.188;2023-05-29T16:56:20;5.53;;;3.03;;
9938;SDS011;5008;50.656;7.188;2023-05-29T16:58:47;5.70;;;3.25;;
9938;SDS011;5008;50.656;7.188;2023-05-29T17:01:14;4.80;;;2.90;;
9938;SDS011;5008;50.656;7.188;2023-05-29T17:03:41;3.15;;;2.80;;
9938;SDS011;5008;50.656;7.188;2023-05-29T17:06:08;5.78;;;3.08;;
9938;SDS011;5008;50.656;7.188;2023-05-29T17:08:35;8.55;;;2.97;;
9938;SDS011;5008;50.656;7.188;2023-05-29T17:11:03;3.78;;;2.75;;
9938;SDS011;5008;50.656;7.188;2023-05-29T17:13:30;4.78;;;2.88;;
9938;SDS011;5008;50.656;7.188;2023-05-29T17:15:57;4.53;;;3.28;;
9938;SDS011;5008;50.656;7.188;2023-05-29T17:18:24;3.75;;;2.90;;
9938;SDS011;5008;50.656;7.188;2023-05-29T17:20:54;4.05;;;2.63;;
9938;SDS011;5008;50.656;7.188;2023-05-29T17:23:21;4.13;;;3.13;;
9938;SDS011;5008;50.656;7.188;2023-05-29T17:25:51;4.15;;;3.05;;
9938;SDS011;5008;50.656;7.188;2023-05-29T17:28:20;4.85;;;3.80;;
9938;SDS011;5008;50.656;7.188;2023-05-29T17:30:48;3.80;;;3.38;;
9938;SDS011;5008;50.656;7.188;2023-05-29T17:33:15;3.72;;;3.10;;
9938;SDS011;5008;50.656;7.188;2023-05-29T17:35:42;6.10;;;3.97;;
9938;SDS011;5008;50.656;7.188;2023-05-29T17:38:10;4.57;;;3.13;;
9938;SDS011;5008;50.656;7.188;2023-05-29T17:40:37;5.22;;;2.92;;
9938;SDS011;5008;50.656;7.188;2023-05-29T17:43:04;4.47;;;3.00;;
9938;SDS011;5008;50.656;7.188;2023-05-29T17:45:32;5.82;;;3.00;;
9938;SDS011;5008;50.656;7.188;2023-05-29T17:47:59;6.65;;;3.80;;
9938;SDS011;5008;50.656;7.188;2023-05-29T17:50:26;3.50;;;2.70;;
9938;SDS011;5008;50.656;7.188;2023-05-29T17:52:53;3.75;;;2.90;;
9938;SDS011;5008;50.656;7.188;2023-05-29T17:55:20;4.10;;;2.95;;
9938;SDS011;5008;50.656;7.188;2023-05-29T17:57:47;5.63;;;2.88;;
9938;SDS011;5008;50.656;7.188;2023-05-29T18:00:14;5.18;;;3.08;;
9938;SDS011;5008;50.656;7.188;2023-05-29T18:02:43;3.90;;;2.88;;
9938;SDS011;5008;50.656;7.188;2023-05-29T18:05:14;5.35;;;3.10;;
9938;SDS011;5008;50.656;7.188;2023-05-29T18:07:41;4.03;;;3.13;;
9938;SDS011;5008;50.656;7.188;2023-05-29T18:10:08;3.72;;;2.47;;
9938;SDS011;5008;50.656;7.188;2023-05-29T18:12:35;5.10;;;3.20;;
9938;SDS011;5008;50.656;7.188;2023-05-29T18:15:03;4.07;;;2.65;;
9938;SDS011;5008;50.656;7.188;2023-05-29T18:17:31;3.53;;;2.88;;
9938;SDS011;5008;50.656;7.188;2023-05-29T18:19:59;4.28;;;2.80;;
9938;SDS011;5008;50.656;7.188;2023-05-29T18:22:26;5.45;;;3.20;;
9938;SDS011;5008;50.656;7.188;2023-05-29T18:24:52;4.07;;;2.60;;
9938;SDS011;5008;50.656;7.188;2023-05-29T18:27:19;4.65;;;2.60;;
9938;SDS011;5008;50.656;7.188;2023-05-29T18:29:48;10.75;;;4.00;;
9938;SDS011;5008;50.656;7.188;2023-05-29T18:32:16;5.07;;;2.88;;
9938;SDS011;5008;50.656;7.188;2023-05-29T18:34:43;4.00;;;2.63;;
9938;SDS011;5008;50.656;7.188;2023-05-29T18:37:12;3.95;;;2.80;;
9938;SDS011;5008;50.656;7.188;2023-05-29T18:39:40;4.72;;;3.00;;
9938;SDS011;5008;50.656;7.188;2023-05-29T18:42:07;3.65;;;2.72;;
9938;SDS011;5008;50.656;7.188;2023-05-29T18:44:34;3.83;;;2.60;;
9938;SDS011;5008;50.656;7.188;2023-05-29T18:47:01;5.50;;;3.00;;
9938;SDS011;5008;50.656;7.188;2023-05-29T18:49:28;3.45;;;2.80;;
9938;SDS011;5008;50.656;7.188;2023-05-29T18:51:55;7.25;;;3.20;;
9938;SDS011;5008;50.656;7.188;2023-05-29T18:54:24;4.97;;;2.70;;
9938;SDS011;5008;50.656;7.188;2023-05-29T18:56:50;4.25;;;2.95;;
9938;SDS011;5008;50.656;7.188;2023-05-29T18:59:17;5.20;;;2.90;;
9938;SDS011;5008;50.656;7.188;2023-05-29T19:01:44;4.90;;;2.90;;
9938;SDS011;5008;50.656;7.188;2023-05-29T19:04:11;3.65;;;2.70;;
9938;SDS011;5008;50.656;7.188;2023-05-29T19:06:38;4.90;;;2.50;;
9938;SDS011;5008;50.656;7.188;2023-05-29T19:09:05;4.25;;;2.67;;
9938;SDS011;5008;50.656;7.188;2023-05-29T19:11:34;4.47;;;2.70;;
9938;SDS011;5008;50.656;7.188;2023-05-29T19:14:00;4.93;;;2.83;;
9938;SDS011;5008;50.656;7.188;2023-05-29T19:16:28;6.30;;;2.90;;
9938;SDS011;5008;50.656;7.188;2023-05-29T19:18:55;6.53;;;3.17;;
9938;SDS011;5008;50.656;7.188;2023-05-29T19:21:24;6.65;;;2.70;;
9938;SDS011;5008;50.656;7.188;2023-05-29T19:23:51;5.63;;;3.17;;
9938;SDS011;5008;50.656;7.188;2023-05-29T19:26:20;5.30;;;2.67;;
9938;SDS011;5008;50.656;7.188;2023-05-29T19:28:49;7.63;;;2.83;;